Time;durP1;ratioP1;P1;durP2;ratioP2;P2;SDS_P1;SDS_P2;PMS_P1;PMS_P2;Temp;Humidity;BMP_temperature;BMP_pressure;BME280_temperature;BME280_humidity;BME280_pressure;Samples;Min_cycle;Max_cycle;Signal;HPM_P1;HPM_P2
2023/06/03 00:00:41;;;;;;;6.33;4.50;;;16.60;76.50;;;;;;4914521;29;20213;-66
2023/06/03 00:03:11;;;;;;;5.35;4.20;;;16.70;76.30;;;;;;4887801;29;20269;-67
2023/06/03 00:05:38;;;;;;;7.50;5.13;;;16.70;76.20;;;;;;4909666;29;20178;-67
2023/06/03 00:08:04;;;;;;;7.25;4.80;;;16.50;76.30;;;;;;4911486;29;20190;-65
2023/06/03 00:10:29;;;;;;;7.43;4.20;;;16.50;77.00;;;;;;4895819;29;20232;-65
2023/06/03 00:12:55;;;;;;;4.47;3.80;;;16.70;77.30;;;;;;4894577;29;20190;-66
2023/06/03 00:15:20;;;;;;;6.90;4.90;;;16.70;77.10;;;;;;4911529;29;20198;-65
2023/06/03 00:17:46;;;;;;;7.63;4.27;;;16.50;77.30;;;;;;4914665;29;20190;-65
2023/06/03 00:20:12;;;;;;;6.20;4.73;;;16.60;78.30;;;;;;4910699;29;20217;-66
2023/06/03 00:22:38;;;;;;;9.53;4.57;;;16.50;78.10;;;;;;4909565;29;20193;-65
2023/06/03 00:25:08;;;;;;;4.40;4.00;;;16.20;79.30;;;;;;4912091;29;20716;-66
2023/06/03 00:27:34;;;;;;;7.05;4.97;;;16.40;80.40;;;;;;4895072;29;20567;-66
2023/06/03 00:30:02;;;;;;;8.50;4.80;;;16.30;79.80;;;;;;4911566;29;20218;-66
2023/06/03 00:32:27;;;;;;;8.52;4.68;;;15.90;79.30;;;;;;4890765;29;20305;-65
2023/06/03 00:34:53;;;;;;;11.07;4.20;;;16.20;79.70;;;;;;4912596;29;20705;-65
2023/06/03 00:37:19;;;;;;;5.40;4.27;;;16.10;79.60;;;;;;4914086;29;20245;-65
2023/06/03 00:39:44;;;;;;;6.43;4.33;;;16.00;79.80;;;;;;4895689;29;20230;-65
2023/06/03 00:42:10;;;;;;;5.90;4.40;;;16.30;80.90;;;;;;4910656;29;20220;-65
2023/06/03 00:44:36;;;;;;;6.50;4.53;;;16.20;81.20;;;;;;4917594;29;20212;-65
2023/06/03 00:47:02;;;;;;;9.27;4.60;;;16.00;80.80;;;;;;4912777;29;20206;-65
2023/06/03 00:49:28;;;;;;;6.93;4.63;;;16.10;81.60;;;;;;4914181;29;20531;-65
2023/06/03 00:51:54;;;;;;;5.87;4.57;;;16.10;82.40;;;;;;4910993;29;20774;-65
2023/06/03 00:54:20;;;;;;;5.15;4.30;;;16.00;82.60;;;;;;4915132;29;20204;-65
2023/06/03 00:56:49;;;;;;;6.40;4.20;;;16.10;83.70;;;;;;4913211;29;20576;-65
2023/06/03 00:59:16;;;;;;;6.73;4.30;;;16.00;83.40;;;;;;4914672;29;20450;-65
2023/06/03 01:01:42;;;;;;;10.15;4.22;;;16.00;84.40;;;;;;4911610;29;20183;-67
2023/06/03 01:04:16;;;;;;;7.07;4.40;;;15.70;85.50;;;;;;4910784;29;20201;-66
2023/06/03 01:06:48;;;;;;;6.63;4.53;;;15.70;86.30;;;;;;4915049;29;20222;-67
2023/06/03 01:09:29;;;;;;;9.90;4.47;;;15.50;87.10;;;;;;4911164;29;20186;-65
2023/06/03 01:12:09;;;;;;;5.13;4.65;;;15.30;87.80;;;;;;4911260;29;20222;-66
2023/06/03 01:14:38;;;;;;;4.82;4.32;;;15.30;87.60;;;;;;4909887;29;20192;-67
2023/06/03 01:17:09;;;;;;;8.75;5.18;;;15.70;88.20;;;;;;4911007;29;20218;-67
2023/06/03 01:19:40;;;;;;;7.50;4.75;;;15.70;88.00;;;;;;4912901;29;20720;-67
2023/06/03 01:22:12;;;;;;;4.90;4.40;;;15.70;88.60;;;;;;4911108;29;20327;-66
2023/06/03 01:24:40;;;;;;;6.70;4.68;;;15.20;89.60;;;;;;4908102;29;20205;-66
2023/06/03 01:27:09;;;;;;;8.15;5.35;;;15.40;90.20;;;;;;4912351;29;20754;-64
2023/06/03 01:29:36;;;;;;;10.88;5.00;;;15.50;90.00;;;;;;4909598;29;20215;-64
2023/06/03 01:32:02;;;;;;;5.35;4.25;;;15.20;90.00;;;;;;4911541;29;20209;-65
2023/06/03 01:34:28;;;;;;;6.75;4.78;;;15.30;90.10;;;;;;4915142;29;20198;-64
2023/06/03 01:36:56;;;;;;;8.07;4.72;;;15.20;90.20;;;;;;4915390;29;20186;-65
2023/06/03 01:39:22;;;;;;;8.27;4.35;;;15.20;90.00;;;;;;4912054;29;20784;-65
2023/06/03 01:41:49;;;;;;;5.10;4.50;;;15.20;90.40;;;;;;4897224;29;20178;-65
2023/06/03 01:44:15;;;;;;;7.20;4.45;;;15.40;90.80;;;;;;4914351;29;20293;-65
2023/06/03 01:46:40;;;;;;;6.07;4.67;;;15.20;91.00;;;;;;4913388;29;20281;-65
2023/06/03 01:49:09;;;;;;;8.00;4.50;;;15.20;91.40;;;;;;4914445;29;20178;-66
2023/06/03 01:51:35;;;;;;;6.43;4.90;;;15.00;91.50;;;;;;4912952;29;20237;-65
2023/06/03 01:54:02;;;;;;;8.20;5.10;;;14.80;91.80;;;;;;4911665;29;20186;-65
2023/06/03 01:56:27;;;;;;;9.82;5.03;;;15.30;92.00;;;;;;4895304;29;20687;-66
2023/06/03 01:58:53;;;;;;;5.20;4.30;;;14.90;92.10;;;;;;4913310;29;20214;-66
2023/06/03 02:01:19;;;;;;;5.40;4.10;;;14.90;92.20;;;;;;4912883;29;20232;-67
2023/06/03 02:03:44;;;;;;;7.13;4.87;;;14.70;92.20;;;;;;4914089;29;20694;-65
2023/06/03 02:06:12;;;;;;;11.37;4.53;;;14.80;92.50;;;;;;4914382;29;20222;-66
2023/06/03 02:08:38;;;;;;;4.28;3.88;;;14.90;92.30;;;;;;4916204;29;20193;-66
2023/06/03 02:11:04;;;;;;;7.63;4.30;;;14.80;92.70;;;;;;4914510;29;20260;-65
2023/06/03 02:13:29;;;;;;;9.97;4.77;;;14.70;92.70;;;;;;4913975;29;20516;-65
2023/06/03 02:15:55;;;;;;;5.87;4.40;;;14.80;92.40;;;;;;4914673;29;20619;-65
2023/06/03 02:18:20;;;;;;;6.97;4.60;;;15.10;92.80;;;;;;4912685;29;20740;-66
2023/06/03 02:20:46;;;;;;;8.90;4.43;;;14.70;92.80;;;;;;4913034;29;20531;-65
2023/06/03 02:23:12;;;;;;;8.03;4.97;;;14.50;92.80;;;;;;4911094;29;20183;-65
2023/06/03 02:25:38;;;;;;;7.03;5.23;;;14.60;93.10;;;;;;4914790;29;20182;-65
2023/06/03 02:28:04;;;;;;;7.00;4.60;;;14.50;93.40;;;;;;4916151;29;20202;-65
2023/06/03 02:30:30;;;;;;;7.03;4.60;;;14.70;93.90;;;;;;4914372;29;20256;-65
2023/06/03 02:32:56;;;;;;;10.30;5.13;;;14.40;93.90;;;;;;4915396;29;20446;-65
2023/06/03 02:35:21;;;;;;;9.60;4.93;;;14.30;94.00;;;;;;4914363;29;20504;-65
2023/06/03 02:37:47;;;;;;;6.20;4.87;;;14.40;94.00;;;;;;4912909;29;20200;-65
2023/06/03 02:40:13;;;;;;;9.70;5.33;;;14.50;94.40;;;;;;4914682;29;20218;-65
2023/06/03 02:42:39;;;;;;;7.03;5.35;;;14.40;94.60;;;;;;4913145;29;20225;-65
2023/06/03 02:45:05;;;;;;;10.73;5.70;;;14.40;94.50;;;;;;4914551;29;20940;-65
2023/06/03 02:47:31;;;;;;;8.32;5.10;;;14.30;94.40;;;;;;4912742;29;20214;-65
2023/06/03 02:49:57;;;;;;;7.93;5.43;;;14.40;94.90;;;;;;4910498;29;20245;-65
2023/06/03 02:52:23;;;;;;;6.23;5.60;;;14.20;95.10;;;;;;4909539;29;20194;-65
2023/06/03 02:54:49;;;;;;;6.97;5.07;;;14.10;95.20;;;;;;4914354;29;20186;-65
2023/06/03 02:57:15;;;;;;;5.72;4.82;;;14.00;95.50;;;;;;4913128;29;20454;-65
2023/06/03 02:59:42;;;;;;;7.37;4.83;;;14.30;95.90;;;;;;4913506;29;20767;-65
2023/06/03 03:02:08;;;;;;;5.93;5.32;;;14.30;95.80;;;;;;4909974;29;20327;-65
2023/06/03 03:04:36;;;;;;;8.50;5.38;;;14.10;96.00;;;;;;4915727;29;20609;-66
2023/06/03 03:07:07;;;;;;;8.02;5.90;;;14.00;96.00;;;;;;4913107;29;20287;-66
2023/06/03 03:09:33;;;;;;;10.25;7.32;;;13.90;96.10;;;;;;4912223;29;20206;-65
2023/06/03 03:11:59;;;;;;;6.40;5.68;;;14.00;96.70;;;;;;4915852;29;20186;-65
2023/06/03 03:14:25;;;;;;;6.97;5.27;;;13.90;96.80;;;;;;4914524;29;20682;-66
2023/06/03 03:16:51;;;;;;;8.07;5.30;;;14.30;96.70;;;;;;4914030;29;20190;-65
2023/06/03 03:19:17;;;;;;;6.38;5.25;;;13.90;96.40;;;;;;4911041;29;20193;-65
2023/06/03 03:21:43;;;;;;;6.57;5.30;;;14.00;96.60;;;;;;4913575;29;20186;-65
2023/06/03 03:24:08;;;;;;;6.30;5.70;;;13.90;96.70;;;;;;4895392;29;20195;-66
2023/06/03 03:26:34;;;;;;;5.23;4.80;;;13.80;96.80;;;;;;4913555;29;20493;-66
2023/06/03 03:29:00;;;;;;;7.03;5.20;;;14.00;97.10;;;;;;4911086;29;20611;-66
2023/06/03 03:31:26;;;;;;;6.25;4.97;;;13.80;97.00;;;;;;4897132;29;20209;-65
2023/06/03 03:33:52;;;;;;;8.53;5.70;;;13.80;97.10;;;;;;4913643;29;20340;-64
2023/06/03 03:36:22;;;;;;;7.93;4.80;;;13.80;97.40;;;;;;4913833;29;20472;-65
2023/06/03 03:39:03;;;;;;;6.25;4.82;;;13.90;97.30;;;;;;4910365;29;20463;-65
2023/06/03 03:41:32;;;;;;;6.97;4.85;;;13.60;97.40;;;;;;4912855;29;20232;-65
2023/06/03 03:43:59;;;;;;;7.32;5.50;;;13.50;97.60;;;;;;4895808;29;20194;-65
2023/06/03 03:46:24;;;;;;;7.45;5.50;;;13.80;97.70;;;;;;4912121;29;20187;-65
2023/06/03 03:48:50;;;;;;;5.83;5.23;;;13.80;97.60;;;;;;4909018;29;20630;-66
2023/06/03 03:51:16;;;;;;;7.38;5.43;;;13.90;97.70;;;;;;4913734;29;20293;-65
2023/06/03 03:53:44;;;;;;;8.70;5.33;;;13.70;97.40;;;;;;4912762;29;20281;-65
2023/06/03 03:56:16;;;;;;;6.90;4.50;;;13.80;97.60;;;;;;4894778;29;20265;-65
2023/06/03 03:58:44;;;;;;;6.88;4.97;;;13.60;97.70;;;;;;4913056;29;21126;-65
2023/06/03 04:01:12;;;;;;;8.32;5.25;;;13.70;97.70;;;;;;4910537;29;20694;-65
2023/06/03 04:03:42;;;;;;;9.32;4.82;;;13.50;97.60;;;;;;4912034;29;20194;-66
2023/06/03 04:06:11;;;;;;;6.25;5.45;;;13.80;98.00;;;;;;4894949;29;20186;-65
2023/06/03 04:08:38;;;;;;;8.70;5.07;;;13.60;98.10;;;;;;4906010;29;20603;-66
2023/06/03 04:11:05;;;;;;;9.50;5.30;;;13.40;98.40;;;;;;4913954;29;20226;-66
2023/06/03 04:13:36;;;;;;;7.95;5.05;;;13.90;98.80;;;;;;4910383;29;20198;-66
2023/06/03 04:16:19;;;;;;;7.38;5.25;;;13.70;98.30;;;;;;4912236;29;20723;-65
2023/06/03 04:18:45;;;;;;;6.93;4.63;;;13.90;98.10;;;;;;4912805;29;20241;-65
2023/06/03 04:21:19;;;;;;;5.33;4.70;;;13.90;98.20;;;;;;4913216;29;20229;-66
2023/06/03 04:23:46;;;;;;;6.18;5.43;;;13.80;98.10;;;;;;4911652;29;20249;-67
2023/06/03 04:26:15;;;;;;;6.95;4.93;;;13.90;97.60;;;;;;4912943;29;20194;-67
2023/06/03 04:28:40;;;;;;;7.80;5.68;;;13.80;97.60;;;;;;4917862;29;20221;-65
2023/06/03 04:31:06;;;;;;;7.60;5.23;;;13.80;97.80;;;;;;4917749;29;20245;-66
2023/06/03 04:33:32;;;;;;;9.03;5.07;;;13.60;97.90;;;;;;4915542;29;20198;-65
2023/06/03 04:35:58;;;;;;;5.90;4.95;;;14.20;97.90;;;;;;4909615;29;20199;-65
2023/06/03 04:38:24;;;;;;;6.03;5.20;;;14.30;97.60;;;;;;4913122;29;20272;-64
2023/06/03 04:40:49;;;;;;;6.80;5.87;;;14.30;97.70;;;;;;4913553;29;20650;-65
2023/06/03 04:43:18;;;;;;;9.43;6.03;;;14.40;97.60;;;;;;4910336;29;20186;-65
2023/06/03 04:45:45;;;;;;;7.50;5.30;;;14.40;97.10;;;;;;4914334;29;20467;-65
2023/06/03 04:48:14;;;;;;;7.45;5.15;;;14.40;96.70;;;;;;4910364;29;20182;-65
2023/06/03 04:50:44;;;;;;;9.00;5.50;;;14.60;96.60;;;;;;4910711;29;20611;-65
2023/06/03 04:53:11;;;;;;;7.18;5.53;;;14.30;96.50;;;;;;4909818;29;20189;-65
2023/06/03 04:55:42;;;;;;;7.65;4.40;;;14.80;95.90;;;;;;4911966;29;20182;-65
2023/06/03 04:58:08;;;;;;;8.15;4.82;;;14.90;95.90;;;;;;4911460;29;20190;-65
2023/06/03 05:00:33;;;;;;;9.63;4.93;;;14.90;95.60;;;;;;4911527;29;20224;-65
2023/06/03 05:02:59;;;;;;;6.87;4.87;;;14.90;95.10;;;;;;4912167;29;20442;-65
2023/06/03 05:05:26;;;;;;;12.48;4.47;;;15.10;94.70;;;;;;4910594;29;20186;-65
2023/06/03 05:07:52;;;;;;;10.15;4.88;;;15.00;94.40;;;;;;4912158;29;20201;-66
2023/06/03 05:10:18;;;;;;;7.22;4.85;;;15.30;94.70;;;;;;4915494;29;20214;-66
2023/06/03 05:12:45;;;;;;;8.60;5.70;;;15.30;94.10;;;;;;4914390;29;20556;-66
2023/06/03 05:15:11;;;;;;;8.68;5.97;;;15.50;94.20;;;;;;4914481;29;20190;-66
2023/06/03 05:17:38;;;;;;;7.07;5.22;;;15.60;94.10;;;;;;4898705;29;20436;-66
2023/06/03 05:20:09;;;;;;;5.15;4.70;;;15.60;93.90;;;;;;4915485;29;20221;-66
2023/06/03 05:22:35;;;;;;;4.93;4.45;;;15.90;93.60;;;;;;4894628;29;20579;-66
2023/06/03 05:25:02;;;;;;;9.35;5.38;;;15.80;93.30;;;;;;4919867;29;20683;-66
2023/06/03 05:27:28;;;;;;;8.30;5.18;;;15.50;93.00;;;;;;4911033;29;20274;-66
2023/06/03 05:29:54;;;;;;;7.50;5.13;;;15.50;93.60;;;;;;4914796;29;20727;-66
2023/06/03 05:32:20;;;;;;;10.35;5.10;;;15.40;93.70;;;;;;4913392;29;20316;-66
2023/06/03 05:34:46;;;;;;;6.73;4.50;;;15.50;93.70;;;;;;4915037;29;20703;-66
2023/06/03 05:37:11;;;;;;;8.03;5.47;;;15.50;93.20;;;;;;4914153;29;20205;-67
2023/06/03 05:39:37;;;;;;;10.30;6.00;;;15.70;93.40;;;;;;4910666;29;20223;-66
2023/06/03 05:42:03;;;;;;;9.30;5.13;;;15.50;93.10;;;;;;4915151;29;20869;-66
2023/06/03 05:44:28;;;;;;;8.27;4.63;;;15.60;93.10;;;;;;4913301;29;20190;-67
2023/06/03 05:46:54;;;;;;;7.90;4.40;;;15.80;93.10;;;;;;4912333;29;20442;-66
2023/06/03 05:49:20;;;;;;;8.40;5.03;;;15.90;92.30;;;;;;4913374;29;20190;-66
2023/06/03 05:51:45;;;;;;;6.83;5.00;;;16.10;92.70;;;;;;4912850;29;20270;-66
2023/06/03 05:54:12;;;;;;;10.90;5.13;;;16.00;92.50;;;;;;4913301;29;20452;-66
2023/06/03 05:56:37;;;;;;;7.32;5.07;;;16.00;92.40;;;;;;4917833;29;20833;-66
2023/06/03 05:59:03;;;;;;;5.80;4.70;;;16.20;91.90;;;;;;4915949;29;20234;-66
2023/06/03 06:01:30;;;;;;;7.00;5.70;;;16.10;91.90;;;;;;4915161;29;20238;-66
2023/06/03 06:03:56;;;;;;;8.10;5.80;;;16.40;92.00;;;;;;4909500;29;20201;-66
2023/06/03 06:06:21;;;;;;;7.90;4.60;;;16.10;91.70;;;;;;4916469;29;20218;-66
2023/06/03 06:08:47;;;;;;;11.30;5.27;;;16.30;91.60;;;;;;4915488;29;20182;-66
2023/06/03 06:11:13;;;;;;;10.50;5.93;;;16.70;91.90;;;;;;4914823;29;20210;-67
2023/06/03 06:13:39;;;;;;;5.50;4.65;;;16.60;91.60;;;;;;4913170;29;20187;-67
2023/06/03 06:16:05;;;;;;;9.20;5.37;;;16.80;91.30;;;;;;4914169;29;20187;-67
2023/06/03 06:18:31;;;;;;;7.40;5.10;;;16.90;91.10;;;;;;4913344;29;20193;-67
2023/06/03 06:20:57;;;;;;;7.87;5.40;;;16.90;90.50;;;;;;4915961;29;20210;-67
2023/06/03 06:23:23;;;;;;;7.63;5.07;;;17.00;90.60;;;;;;4913015;29;20194;-67
2023/06/03 06:25:50;;;;;;;6.80;4.90;;;17.20;90.50;;;;;;4914319;29;20182;-66
2023/06/03 06:28:30;;;;;;;10.02;5.70;;;17.30;90.20;;;;;;4900519;29;20186;-67
2023/06/03 06:31:01;;;;;;;7.63;5.47;;;17.60;89.80;;;;;;4911086;29;20206;-67
2023/06/03 06:33:28;;;;;;;7.50;5.38;;;17.80;89.50;;;;;;4913854;29;20178;-67
2023/06/03 06:35:54;;;;;;;7.68;5.13;;;17.60;88.10;;;;;;4913996;29;20193;-66
2023/06/03 06:38:20;;;;;;;7.13;5.03;;;17.60;87.70;;;;;;4909694;29;20190;-67
2023/06/03 06:40:46;;;;;;;7.25;6.55;;;17.50;87.00;;;;;;4915275;29;20272;-67
2023/06/03 06:43:21;;;;;;;6.00;4.60;;;17.60;88.00;;;;;;4911513;29;20202;-67
2023/06/03 06:45:47;;;;;;;6.28;4.70;;;17.60;87.50;;;;;;4901883;29;20177;-67
2023/06/03 06:48:13;;;;;;;6.25;5.00;;;17.90;87.20;;;;;;4915179;29;21009;-67
2023/06/03 06:50:51;;;;;;;7.05;5.93;;;17.90;86.10;;;;;;4914360;29;20206;-66
2023/06/03 06:53:20;;;;;;;6.20;5.60;;;18.10;85.80;;;;;;4909163;29;20764;-66
2023/06/03 06:55:52;;;;;;;9.00;5.22;;;18.30;85.70;;;;;;4913399;29;20651;-66
2023/06/03 06:58:18;;;;;;;5.82;4.85;;;18.50;84.70;;;;;;4914369;29;20190;-66
2023/06/03 07:00:44;;;;;;;5.35;4.85;;;18.60;84.10;;;;;;4915709;29;20229;-67
2023/06/03 07:03:13;;;;;;;6.35;5.00;;;19.10;83.20;;;;;;4911549;29;20198;-67
2023/06/03 07:05:38;;;;;;;6.60;4.93;;;20.50;80.60;;;;;;4915434;29;20178;-67
2023/06/03 07:08:04;;;;;;;4.80;4.30;;;21.60;75.00;;;;;;4905106;29;20454;-70
2023/06/03 07:10:30;;;;;;;7.13;5.30;;;24.10;67.50;;;;;;4911776;29;20687;-72
2023/06/03 07:12:56;;;;;;;8.60;5.20;;;26.80;60.60;;;;;;4915949;29;20530;-73
2023/06/03 07:15:25;;;;;;;7.03;5.57;;;27.70;54.60;;;;;;4912743;29;20460;-72
2023/06/03 07:17:56;;;;;;;5.43;4.77;;;30.00;51.60;;;;;;4910847;29;20194;-72
2023/06/03 07:20:35;;;;;;;6.07;5.47;;;29.50;49.10;;;;;;4895547;29;20485;-73
2023/06/03 07:23:06;;;;;;;10.37;4.57;;;31.40;45.00;;;;;;4905394;29;20447;-69
2023/06/03 07:25:37;;;;;;;6.10;4.47;;;30.60;46.20;;;;;;4911203;29;20456;-68
2023/06/03 07:28:14;;;;;;;6.33;4.60;;;31.70;43.20;;;;;;4911236;29;20450;-69
2023/06/03 07:30:41;;;;;;;5.80;4.50;;;32.20;43.10;;;;;;4909494;29;21014;-76
2023/06/03 07:33:11;;;;;;;9.00;5.27;;;33.00;41.60;;;;;;4897383;29;20903;-75
2023/06/03 07:35:37;;;;;;;6.77;4.80;;;34.20;40.00;;;;;;4909626;29;20453;-75
2023/06/03 07:38:06;;;;;;;5.70;4.63;;;34.70;38.70;;;;;;4906713;29;20432;-75
2023/06/03 07:40:42;;;;;;;6.97;4.57;;;35.00;38.00;;;;;;4912632;29;20474;-75
2023/06/03 07:43:11;;;;;;;7.60;5.00;;;36.20;36.20;;;;;;4888718;29;20445;-74
2023/06/03 07:45:37;;;;;;;4.80;4.30;;;35.80;35.20;;;;;;4895492;29;20979;-75
2023/06/03 07:48:03;;;;;;;5.00;4.53;;;35.90;35.50;;;;;;4897091;29;20438;-77
2023/06/03 07:50:29;;;;;;;4.97;4.50;;;36.70;34.20;;;;;;4899862;29;20660;-73
2023/06/03 07:53:03;;;;;;;5.87;5.30;;;35.20;34.90;;;;;;4916879;29;21284;-76
2023/06/03 07:55:43;;;;;;;5.03;4.70;;;35.20;35.60;;;;;;4906936;29;20812;-76
2023/06/03 07:58:10;;;;;;;8.43;6.10;;;37.00;33.90;;;;;;4889279;29;21355;-76
2023/06/03 08:00:39;;;;;;;5.90;4.33;;;37.40;32.90;;;;;;4894059;29;20474;-76
2023/06/03 08:03:06;;;;;;;8.97;4.83;;;36.70;33.20;;;;;;4889246;29;20572;-71
2023/06/03 08:05:36;;;;;;;6.77;5.10;;;37.30;32.70;;;;;;4911767;29;20476;-71
2023/06/03 08:08:05;;;;;;;7.47;4.97;;;36.70;33.10;;;;;;4911401;29;20449;-71
2023/06/03 08:10:33;;;;;;;5.47;4.47;;;36.80;33.00;;;;;;4890560;29;20497;-71
2023/06/03 08:13:00;;;;;;;5.77;5.27;;;37.00;32.20;;;;;;4894120;29;20533;-71
2023/06/03 08:15:28;;;;;;;6.73;5.30;;;36.70;32.80;;;;;;4892846;29;20450;-71
2023/06/03 08:17:55;;;;;;;7.53;5.60;;;34.80;32.20;;;;;;4911124;29;20453;-72
2023/06/03 08:20:27;;;;;;;5.70;5.10;;;34.70;34.70;;;;;;4886361;29;20504;-72
2023/06/03 08:22:53;;;;;;;7.20;5.07;;;35.80;34.10;;;;;;4912525;29;20452;-71
2023/06/03 08:25:19;;;;;;;8.13;5.87;;;34.60;34.00;;;;;;4909734;29;20887;-71
2023/06/03 08:27:45;;;;;;;5.90;4.93;;;34.50;35.50;;;;;;4911026;29;20450;-72
2023/06/03 08:30:15;;;;;;;6.13;5.63;;;34.00;35.90;;;;;;4911894;29;20523;-71
2023/06/03 08:32:41;;;;;;;6.20;5.40;;;33.70;35.80;;;;;;4906735;29;20449;-72
2023/06/03 08:35:08;;;;;;;8.10;5.57;;;34.00;35.40;;;;;;4893014;29;20468;-72
2023/06/03 08:37:34;;;;;;;6.10;4.93;;;32.60;36.80;;;;;;4893399;29;20930;-69
2023/06/03 08:40:01;;;;;;;6.67;5.10;;;34.40;36.20;;;;;;4910898;29;20474;-71
2023/06/03 08:42:36;;;;;;;6.50;5.90;;;35.00;35.60;;;;;;4906865;29;20210;-71
2023/06/03 08:45:05;;;;;;;8.73;5.80;;;35.80;34.30;;;;;;4906355;29;20438;-71
2023/06/03 08:47:56;;;;;;;7.00;5.83;;;34.50;34.00;;;;;;4907371;29;20529;-71
2023/06/03 08:50:24;;;;;;;9.60;6.27;;;32.30;37.00;;;;;;4905989;29;20473;-71
2023/06/03 08:52:52;;;;;;;6.00;5.40;;;35.30;36.20;;;;;;4907366;29;20461;-71
2023/06/03 08:55:19;;;;;;;7.40;5.90;;;35.90;34.50;;;;;;4908659;29;20573;-72
2023/06/03 08:58:23;;;;;;;6.03;5.43;;;36.50;33.30;;;;;;4908397;29;20453;-71
2023/06/03 09:00:55;;;;;;;5.23;4.73;;;36.90;33.00;;;;;;4830857;29;20469;-70
2023/06/03 09:03:22;;;;;;;7.97;5.17;;;37.10;32.60;;;;;;4895623;29;20791;-71
2023/06/03 09:05:48;;;;;;;5.90;5.40;;;36.50;32.50;;;;;;4908689;29;20446;-70
2023/06/03 09:08:16;;;;;;;5.50;5.00;;;36.30;32.60;;;;;;4911476;29;20824;-70
2023/06/03 09:10:45;;;;;;;7.17;5.17;;;35.80;33.50;;;;;;4909455;29;20474;-70
2023/06/03 09:13:13;;;;;;;7.50;5.50;;;36.20;33.50;;;;;;4909331;29;20450;-70
2023/06/03 09:15:41;;;;;;;8.00;4.90;;;34.70;33.40;;;;;;4893197;29;20853;-71
2023/06/03 09:18:07;;;;;;;5.43;4.93;;;34.40;34.80;;;;;;4909063;29;20532;-72
2023/06/03 09:20:35;;;;;;;6.17;5.43;;;35.50;34.60;;;;;;4910054;29;20564;-71
2023/06/03 09:23:01;;;;;;;6.40;5.10;;;36.20;33.20;;;;;;4908866;29;20621;-71
2023/06/03 09:25:26;;;;;;;6.27;5.67;;;36.50;33.00;;;;;;4909375;29;21026;-72
2023/06/03 09:27:53;;;;;;;7.03;6.37;;;35.70;33.10;;;;;;4909614;29;20446;-72
2023/06/03 09:30:19;;;;;;;6.53;5.53;;;36.30;33.10;;;;;;4911282;29;20638;-72
2023/06/03 09:32:45;;;;;;;5.40;4.80;;;36.00;33.70;;;;;;4907906;29;20552;-72
2023/06/03 09:35:11;;;;;;;7.60;5.87;;;36.10;33.30;;;;;;4911474;29;20194;-71
2023/06/03 09:37:37;;;;;;;6.53;5.93;;;36.10;33.60;;;;;;4909715;29;20198;-71
2023/06/03 09:40:05;;;;;;;8.67;5.57;;;36.00;33.80;;;;;;4911017;29;20485;-71
2023/06/03 09:42:44;;;;;;;6.30;5.67;;;36.70;33.30;;;;;;4912506;29;20683;-71
2023/06/03 09:45:29;;;;;;;6.50;5.73;;;36.90;33.30;;;;;;4909475;29;20528;-71
2023/06/03 09:47:55;;;;;;;7.13;5.83;;;36.30;32.50;;;;;;4911349;29;20959;-71
2023/06/03 09:50:22;;;;;;;7.90;5.70;;;36.50;32.50;;;;;;4909534;29;20474;-71
2023/06/03 09:52:47;;;;;;;7.80;5.43;;;35.80;33.40;;;;;;4907937;29;20482;-71
2023/06/03 09:55:14;;;;;;;7.83;5.37;;;35.10;34.80;;;;;;4913165;29;20500;-71
2023/06/03 09:57:41;;;;;;;7.07;5.97;;;35.00;35.00;;;;;;4914657;29;20234;-70
2023/06/03 10:00:10;;;;;;;6.70;5.97;;;35.30;34.90;;;;;;4895273;29;20501;-71
2023/06/03 10:02:38;;;;;;;6.20;5.60;;;35.50;34.80;;;;;;4896682;29;20472;-71
2023/06/03 10:05:04;;;;;;;5.97;5.37;;;36.10;34.20;;;;;;4912684;29;20864;-71
2023/06/03 10:07:30;;;;;;;6.73;5.93;;;34.90;34.80;;;;;;4895889;29;20936;-71
2023/06/03 10:10:06;;;;;;;6.30;5.70;;;34.90;35.10;;;;;;4913735;29;20458;-71
2023/06/03 10:12:33;;;;;;;7.17;5.47;;;35.70;34.60;;;;;;4911867;29;20273;-71
2023/06/03 10:14:59;;;;;;;6.37;5.73;;;35.50;34.70;;;;;;4916054;29;20446;-71
2023/06/03 10:17:24;;;;;;;5.70;4.97;;;36.20;34.10;;;;;;4918403;29;20449;-70
2023/06/03 10:19:50;;;;;;;6.30;5.67;;;35.70;34.70;;;;;;4915592;29;20472;-70
2023/06/03 10:22:18;;;;;;;7.27;6.57;;;35.30;35.10;;;;;;4912052;29;20656;-70
2023/06/03 10:24:45;;;;;;;6.87;5.60;;;35.50;34.80;;;;;;4895897;29;20233;-70
2023/06/03 10:27:12;;;;;;;8.70;5.80;;;34.10;35.70;;;;;;4914498;29;20453;-70
2023/06/03 10:29:38;;;;;;;5.93;5.43;;;33.90;37.00;;;;;;4911741;29;20484;-70
2023/06/03 10:32:09;;;;;;;6.67;5.73;;;32.90;37.30;;;;;;4896021;29;20446;-70
2023/06/03 10:34:39;;;;;;;6.87;6.27;;;32.20;39.00;;;;;;4913658;29;20476;-70
2023/06/03 10:37:06;;;;;;;6.60;5.60;;;32.30;39.70;;;;;;4913054;29;20529;-70
2023/06/03 10:39:32;;;;;;;7.00;6.40;;;32.00;40.00;;;;;;4912388;29;20489;-70
2023/06/03 10:42:06;;;;;;;7.67;6.97;;;31.40;41.00;;;;;;4912260;29;20501;-70
2023/06/03 10:44:33;;;;;;;6.57;5.83;;;30.00;41.70;;;;;;4911234;29;20520;-71
2023/06/03 10:47:22;;;;;;;6.93;5.97;;;31.00;42.10;;;;;;4911074;29;20441;-71
2023/06/03 10:50:16;;;;;;;6.80;6.07;;;32.10;40.40;;;;;;4896031;29;20649;-71
2023/06/03 10:52:47;;;;;;;6.87;6.23;;;33.30;38.70;;;;;;4910110;29;20993;-71
2023/06/03 10:55:38;;;;;;;7.00;6.30;;;32.70;39.10;;;;;;4896614;29;20493;-72
2023/06/03 10:58:35;;;;;;;8.00;6.33;;;33.20;38.50;;;;;;4912468;29;20442;-71
2023/06/03 11:01:03;;;;;;;7.63;6.70;;;34.10;38.10;;;;;;4906066;29;20854;-71
2023/06/03 11:03:31;;;;;;;7.33;6.63;;;34.20;36.30;;;;;;4894424;29;20449;-72
2023/06/03 11:06:21;;;;;;;6.37;5.83;;;34.30;37.70;;;;;;4893961;29;20545;-72
2023/06/03 11:08:59;;;;;;;6.67;5.93;;;35.00;36.30;;;;;;4912110;29;20438;-72
2023/06/03 11:11:59;;;;;;;9.67;6.60;;;35.50;35.80;;;;;;4910024;29;20470;-71
2023/06/03 11:14:24;;;;;;;7.93;5.90;;;33.50;36.90;;;;;;4898451;29;20545;-71
2023/06/03 11:16:59;;;;;;;8.20;6.70;;;32.50;38.40;;;;;;4915340;29;20975;-71
2023/06/03 11:19:31;;;;;;;7.57;6.80;;;31.90;39.90;;;;;;4913856;29;20210;-69
2023/06/03 11:22:01;;;;;;;6.80;6.07;;;31.80;39.90;;;;;;4913287;29;20485;-71
2023/06/03 11:24:39;;;;;;;6.97;6.27;;;32.30;39.60;;;;;;4894041;29;20823;-71
2023/06/03 11:27:13;;;;;;;8.00;7.27;;;33.00;38.80;;;;;;4908702;29;20541;-70
2023/06/03 11:32:15;;;;;;;11.60;5.97;;;32.40;38.30;;;;;;4912797;29;20453;-72
2023/06/03 11:34:42;;;;;;;7.33;6.63;;;31.90;39.30;;;;;;4912128;29;20454;-69
2023/06/03 11:37:07;;;;;;;6.73;6.07;;;31.90;39.40;;;;;;4912948;29;20969;-69
2023/06/03 11:40:00;;;;;;;7.70;6.23;;;32.00;39.80;;;;;;4893961;29;20477;-71
2023/06/03 11:42:25;;;;;;;7.20;6.60;;;30.70;40.40;;;;;;4895108;29;20215;-71
2023/06/03 11:44:51;;;;;;;7.47;6.30;;;31.00;40.90;;;;;;4913447;29;20456;-69
2023/06/03 11:47:16;;;;;;;6.97;6.30;;;30.90;41.50;;;;;;4892258;29;20187;-70
2023/06/03 11:49:42;;;;;;;9.27;6.50;;;31.40;41.70;;;;;;4910054;29;20215;-69
2023/06/03 11:52:09;;;;;;;9.17;6.87;;;30.40;41.60;;;;;;4910208;29;20259;-69
2023/06/03 11:54:37;;;;;;;10.57;7.10;;;29.60;43.10;;;;;;4911209;29;20189;-69
2023/06/03 11:57:03;;;;;;;6.90;6.30;;;29.20;44.80;;;;;;4908286;29;20457;-70
2023/06/03 11:59:44;;;;;;;7.30;6.30;;;27.90;46.20;;;;;;4896277;29;20464;-69
2023/06/03 12:02:10;;;;;;;7.60;6.87;;;27.60;46.20;;;;;;4910436;29;20458;-70
2023/06/03 12:04:37;;;;;;;7.33;6.60;;;27.30;46.80;;;;;;4913909;29;20514;-69
2023/06/03 12:07:14;;;;;;;7.60;6.40;;;27.00;47.40;;;;;;4910010;29;20824;-70
2023/06/03 12:09:40;;;;;;;7.30;6.60;;;26.90;47.50;;;;;;4909980;29;20214;-70
2023/06/03 12:12:07;;;;;;;7.10;6.50;;;27.00;48.40;;;;;;4911722;29;20456;-70
2023/06/03 12:14:34;;;;;;;7.00;6.30;;;26.50;48.10;;;;;;4913250;29;20194;-70
2023/06/03 12:17:18;;;;;;;6.67;6.07;;;26.50;48.90;;;;;;4895141;29;20522;-70
2023/06/03 12:19:50;;;;;;;8.50;6.83;;;26.60;48.80;;;;;;4909661;29;20478;-70
2023/06/03 12:22:23;;;;;;;7.60;6.80;;;26.40;49.50;;;;;;4894531;29;20989;-69
2023/06/03 12:24:50;;;;;;;8.00;7.20;;;26.50;49.60;;;;;;4913230;29;20446;-69
2023/06/03 12:27:19;;;;;;;6.90;6.30;;;26.20;49.10;;;;;;4912634;29;20540;-69
2023/06/03 12:29:47;;;;;;;6.83;6.13;;;26.10;49.40;;;;;;4914134;29;20812;-69
2023/06/03 12:32:13;;;;;;;6.17;5.57;;;26.20;50.00;;;;;;4911076;29;20613;-69
2023/06/03 12:34:40;;;;;;;6.83;6.03;;;26.00;49.60;;;;;;4894121;29;20880;-71
2023/06/03 12:37:07;;;;;;;7.03;6.40;;;26.00;49.70;;;;;;4913377;29;20453;-71
2023/06/03 12:39:50;;;;;;;7.90;7.20;;;25.80;50.10;;;;;;4905705;29;20894;-71
2023/06/03 12:42:18;;;;;;;6.70;6.10;;;25.80;50.30;;;;;;4909640;29;20488;-69
2023/06/03 12:44:46;;;;;;;7.00;6.40;;;26.00;50.20;;;;;;4915158;29;20457;-69
2023/06/03 12:47:14;;;;;;;6.83;6.23;;;26.10;49.60;;;;;;4911752;29;20449;-70
2023/06/03 12:49:40;;;;;;;6.13;5.53;;;26.40;48.40;;;;;;4908924;29;21053;-69
2023/06/03 12:52:14;;;;;;;11.03;6.90;;;26.50;48.30;;;;;;4909523;29;20549;-69
2023/06/03 12:54:41;;;;;;;7.30;6.60;;;26.60;47.90;;;;;;4912656;29;20485;-69